createdAt,value
2022-12-23T00:01:51.106Z,100464.06
2022-12-23T00:04:17.988Z,100468.69
2022-12-23T00:06:44.696Z,100455.75
2022-12-23T00:09:11.429Z,100457.88
2022-12-23T00:11:58.127Z,100447.00
2022-12-23T00:14:43.828Z,100446.00
2022-12-23T00:17:22.055Z,100447.97
2022-12-23T00:19:49.772Z,100447.81
2022-12-23T00:22:16.617Z,100447.13
2022-12-23T00:24:43.328Z,100451.38
2022-12-23T00:27:10.035Z,100454.06
2022-12-23T00:29:36.680Z,100460.16
2022-12-23T00:32:03.399Z,100467.72
2022-12-23T00:34:30.084Z,100471.09
2022-12-23T00:36:57.023Z,100471.09
2022-12-23T00:39:42.087Z,100462.91
2022-12-23T00:42:27.640Z,100456.53
2022-12-23T00:45:14.419Z,100446.63
2022-12-23T00:48:00.450Z,100438.28
2022-12-23T00:50:28.166Z,100430.78
2022-12-23T00:52:54.908Z,100416.06
2022-12-23T00:55:21.734Z,100412.78
2022-12-23T00:57:48.429Z,100409.06
2022-12-23T01:00:15.693Z,100411.44
2022-12-23T01:03:01.172Z,100404.50
2022-12-23T01:05:37.103Z,100397.72
2022-12-23T01:08:11.975Z,100398.38
2022-12-23T01:10:40.571Z,100390.84
2022-12-23T01:13:07.660Z,100387.16
2022-12-23T01:15:34.592Z,100377.13
2022-12-23T01:18:01.281Z,100372.47
2022-12-23T01:20:27.900Z,100363.84
2022-12-23T01:22:54.621Z,100352.63
2022-12-23T01:25:21.362Z,100345.13
2022-12-23T01:27:48.078Z,100335.63
2022-12-23T01:30:14.973Z,100345.38
2022-12-23T01:32:41.668Z,100336.88
2022-12-23T01:35:08.548Z,100340.53
2022-12-23T01:37:35.671Z,100339.56
2022-12-23T01:40:02.444Z,100334.75
2022-12-23T01:42:44.412Z,100328.25
2022-12-23T01:45:31.149Z,100319.22
2022-12-23T01:48:10.449Z,100314.25
2022-12-23T01:50:41.966Z,100328.00
2022-12-23T01:53:17.398Z,100330.72
2022-12-23T01:55:52.009Z,100329.72
2022-12-23T01:58:24.338Z,100332.00
2022-12-23T02:01:10.635Z,100326.09
2022-12-23T02:03:43.384Z,100317.63
2022-12-23T02:06:49.172Z,100309.84
2022-12-23T02:09:34.080Z,100322.75
2022-12-23T02:12:37.497Z,100314.53
2022-12-23T02:15:38.245Z,100314.84
2022-12-23T02:18:26.189Z,100318.94
2022-12-23T02:21:14.580Z,100320.50
2022-12-23T02:23:50.169Z,100327.19
2022-12-23T02:26:31.935Z,100315.28
2022-12-23T02:29:21.920Z,100317.31
2022-12-23T02:32:07.926Z,100317.56
2022-12-23T02:34:46.562Z,100320.41
2022-12-23T02:37:34.552Z,100309.94
2022-12-23T02:40:21.710Z,100294.22
2022-12-23T02:43:02.405Z,100281.47
2022-12-23T02:45:40.907Z,100270.16
2022-12-23T02:48:22.469Z,100262.47
2022-12-23T02:50:53.447Z,100247.19
2022-12-23T02:53:28.090Z,100234.44
2022-12-23T02:55:56.156Z,100230.63
2022-12-23T02:58:29.292Z,100223.94
2022-12-23T03:00:58.127Z,100223.50
2022-12-23T03:03:26.334Z,100219.53
2022-12-23T03:05:54.595Z,100213.28
2022-12-23T03:08:26.234Z,100204.63
2022-12-23T03:11:07.345Z,100207.56
2022-12-23T03:14:08.194Z,100209.41
2022-12-23T03:17:14.442Z,100201.44
2022-12-23T03:19:54.420Z,100195.75
2022-12-23T03:22:38.433Z,100197.84
2022-12-23T03:25:31.799Z,100189.59
2022-12-23T03:28:06.372Z,100179.38
2022-12-23T03:30:35.737Z,100176.38
2022-12-23T03:33:12.972Z,100168.00
2022-12-23T03:35:51.919Z,100159.63
2022-12-23T03:38:20.178Z,100159.34
2022-12-23T03:40:58.284Z,100155.34
2022-12-23T03:43:29.134Z,100144.41
2022-12-23T03:46:05.120Z,100145.66
2022-12-23T03:48:48.868Z,100137.41
2022-12-23T03:51:23.108Z,100131.53
2022-12-23T03:54:00.910Z,100126.72
2022-12-23T03:56:36.654Z,100113.78
2022-12-23T03:59:14.425Z,100097.28
2022-12-23T04:01:57.969Z,100089.06
2022-12-23T04:04:52.145Z,100085.72
2022-12-23T04:07:25.346Z,100079.03
2022-12-23T04:09:53.564Z,100077.88
2022-12-23T04:12:24.022Z,100066.75
2022-12-23T04:14:51.150Z,100058.06
2022-12-23T04:17:18.644Z,100058.13
2022-12-23T04:19:46.229Z,100056.34
2022-12-23T04:22:13.870Z,100054.53
2022-12-23T04:24:42.977Z,100045.66
2022-12-23T04:27:13.100Z,100043.31
2022-12-23T04:29:39.903Z,100028.66
2022-12-23T04:32:08.293Z,100032.56
2022-12-23T04:34:35.130Z,100014.88
2022-12-23T04:37:01.808Z,100014.25
2022-12-23T04:39:28.564Z,100013.75
2022-12-23T04:41:55.387Z,99999.63
2022-12-23T04:44:22.132Z,99988.34
2022-12-23T04:46:48.912Z,99991.41
2022-12-23T04:49:15.737Z,99991.06
2022-12-23T04:51:42.411Z,99974.38
2022-12-23T04:54:09.196Z,99966.78
2022-12-23T04:56:36.172Z,99962.75
2022-12-23T04:59:04.322Z,99960.72
2022-12-23T05:01:31.140Z,99947.91
2022-12-23T05:03:58.151Z,99949.31
2022-12-23T05:06:24.986Z,99938.00
2022-12-23T05:08:51.869Z,99936.31
2022-12-23T05:11:19.019Z,99933.97
2022-12-23T05:13:45.659Z,99922.28
2022-12-23T05:16:12.412Z,99920.94
2022-12-23T05:18:39.298Z,99917.41
2022-12-23T05:21:06.002Z,99904.38
2022-12-23T05:23:33.046Z,99901.38
2022-12-23T05:25:59.698Z,99889.22
2022-12-23T05:28:26.454Z,99894.25
2022-12-23T05:31:05.278Z,99882.09
2022-12-23T05:33:33.634Z,99880.06
2022-12-23T05:36:00.498Z,99878.88
2022-12-23T05:38:27.480Z,99869.75
2022-12-23T05:40:54.219Z,99866.00
2022-12-23T05:43:21.536Z,99864.66
2022-12-23T05:45:49.295Z,99862.81
2022-12-23T05:48:15.956Z,99862.63
2022-12-23T05:50:42.641Z,99853.50
2022-12-23T05:53:09.492Z,99851.63
2022-12-23T05:55:36.668Z,99839.81
2022-12-23T05:58:03.386Z,99826.78
2022-12-23T06:00:30.292Z,99822.22
2022-12-23T06:02:57.248Z,99816.47
2022-12-23T06:05:24.153Z,99809.88
2022-12-23T06:07:50.918Z,99810.34
2022-12-23T06:10:17.933Z,99809.66
2022-12-23T06:12:44.625Z,99801.53
2022-12-23T06:15:11.656Z,99803.91
2022-12-23T06:17:38.443Z,99793.06
2022-12-23T06:20:05.684Z,99791.03
2022-12-23T06:22:32.665Z,99765.66
2022-12-23T06:24:59.471Z,99760.25
2022-12-23T06:27:26.135Z,99754.00
2022-12-23T06:29:52.971Z,99746.38
2022-12-23T06:32:19.758Z,99745.53
2022-12-23T06:34:46.858Z,99740.94
2022-12-23T06:37:13.666Z,99732.00
2022-12-23T06:39:40.498Z,99729.13
2022-12-23T06:42:07.107Z,99721.88
2022-12-23T06:44:33.849Z,99711.88
2022-12-23T06:47:00.641Z,99716.28
2022-12-23T06:49:27.271Z,99713.38
2022-12-23T06:51:54.326Z,99699.66
2022-12-23T06:54:20.974Z,99688.66
2022-12-23T06:56:47.601Z,99692.19
2022-12-23T06:59:14.429Z,99692.19
2022-12-23T07:01:41.186Z,99691.88
2022-12-23T07:04:07.979Z,99688.13
2022-12-23T07:06:34.950Z,99691.69
2022-12-23T07:09:02.238Z,99696.06
2022-12-23T07:11:28.885Z,99705.03
2022-12-23T07:13:55.729Z,99701.28
2022-12-23T07:16:22.602Z,99704.66
2022-12-23T07:18:49.407Z,99711.78
2022-12-23T07:21:24.893Z,99713.63
2022-12-23T07:23:55.579Z,99724.25
2022-12-23T07:26:22.289Z,99721.56
2022-12-23T07:28:49.158Z,99726.13
2022-12-23T07:31:16.345Z,99720.72
2022-12-23T07:33:43.280Z,99722.41
2022-12-23T07:36:10.137Z,99722.41
2022-12-23T07:38:37.007Z,99718.03
2022-12-23T07:41:03.871Z,99710.72
2022-12-23T07:43:30.495Z,99700.09
2022-12-23T07:46:00.485Z,99698.44
2022-12-23T07:48:27.898Z,99694.03
2022-12-23T07:51:02.991Z,99684.22
2022-12-23T07:53:29.964Z,99679.81
2022-12-23T07:55:57.136Z,99680.69
2022-12-23T07:58:24.300Z,99683.56
2022-12-23T08:00:51.629Z,99666.47
2022-12-23T08:03:18.383Z,99656.69
2022-12-23T08:05:45.345Z,99644.34
2022-12-23T08:08:12.804Z,99631.00
2022-12-23T08:10:46.136Z,99626.97
2022-12-23T08:13:14.967Z,99628.66
2022-12-23T08:15:41.657Z,99622.59
2022-12-23T08:18:08.279Z,99626.31
2022-12-23T08:20:35.148Z,99628.19
2022-12-23T08:23:01.775Z,99637.13
2022-12-23T08:25:28.468Z,99627.16
2022-12-23T08:27:55.396Z,99641.53
2022-12-23T08:30:22.123Z,99636.13
2022-12-23T08:32:48.735Z,99640.50
2022-12-23T08:35:15.674Z,99632.41
2022-12-23T08:37:42.255Z,99624.28
2022-12-23T08:40:09.412Z,99625.09
2022-12-23T08:42:36.136Z,99623.22
2022-12-23T08:45:02.825Z,99623.91
2022-12-23T08:47:29.482Z,99609.38
2022-12-23T08:49:56.391Z,99622.91
2022-12-23T08:52:23.015Z,99613.72
2022-12-23T08:54:49.665Z,99605.44
2022-12-23T08:57:16.896Z,99601.91
2022-12-23T08:59:43.614Z,99591.91
2022-12-23T09:02:11.859Z,99591.91
2022-12-23T09:04:38.983Z,99604.41
2022-12-23T09:07:06.107Z,99582.78
2022-12-23T09:09:32.814Z,99578.22
2022-12-23T09:11:59.541Z,99572.63
2022-12-23T09:14:26.364Z,99574.28
2022-12-23T09:16:53.192Z,99566.16
2022-12-23T09:19:20.540Z,99556.19
2022-12-23T09:21:47.641Z,99555.16
2022-12-23T09:24:14.328Z,99548.72
2022-12-23T09:26:41.288Z,99546.69
2022-12-23T09:29:07.997Z,99549.41
2022-12-23T09:31:37.801Z,99545.84
2022-12-23T09:34:05.603Z,99538.56
2022-12-23T09:36:32.505Z,99545.66
2022-12-23T09:38:59.544Z,99545.50
2022-12-23T09:41:48.992Z,99540.91
2022-12-23T09:44:37.523Z,99551.72
2022-12-23T09:47:11.379Z,99547.16
2022-12-23T09:49:47.484Z,99548.84
2022-12-23T09:52:20.458Z,99544.25
2022-12-23T09:54:49.457Z,99544.44
2022-12-23T09:57:46.737Z,99539.03
2022-12-23T10:00:15.705Z,99531.78
2022-12-23T10:02:54.808Z,99533.63
2022-12-23T10:05:40.062Z,99542.59
2022-12-23T10:08:34.581Z,99549.03
2022-12-23T10:11:07.097Z,99563.19
2022-12-23T10:13:39.727Z,99562.19
2022-12-23T10:16:20.470Z,99556.41
2022-12-23T10:19:04.974Z,99553.34
2022-12-23T10:21:49.332Z,99532.34
2022-12-23T10:24:23.190Z,99518.44
2022-12-23T10:26:54.164Z,99517.91
2022-12-23T10:29:24.304Z,99513.94
2022-12-23T10:32:06.025Z,99509.19
2022-12-23T10:34:44.633Z,99504.25
2022-12-23T10:37:22.823Z,99489.31
2022-12-23T10:40:17.411Z,99490.59
2022-12-23T10:42:58.053Z,99490.25
2022-12-23T10:45:43.448Z,99483.25
2022-12-23T10:48:41.000Z,99476.06
2022-12-23T10:51:22.305Z,99481.38
2022-12-23T10:53:48.852Z,99467.44
2022-12-23T10:56:16.193Z,99484.81
2022-12-23T10:58:49.996Z,99491.72
2022-12-23T11:01:26.573Z,99488.81
2022-12-23T11:04:09.514Z,99482.81
2022-12-23T11:06:43.731Z,99485.34
2022-12-23T11:09:25.328Z,99474.31
2022-12-23T11:11:53.476Z,99473.75
2022-12-23T11:14:52.324Z,99474.03
2022-12-23T11:17:20.927Z,99471.94
2022-12-23T11:19:48.396Z,99463.00
2022-12-23T11:22:25.678Z,99461.50
2022-12-23T11:24:52.386Z,99458.97
2022-12-23T11:27:19.835Z,99454.38
2022-12-23T11:29:51.552Z,99457.50
2022-12-23T11:32:24.606Z,99457.50
2022-12-23T11:34:52.210Z,99461.22
2022-12-23T11:37:28.355Z,99461.03
2022-12-23T11:39:55.357Z,99447.47
2022-12-23T11:42:27.970Z,99448.13
2022-12-23T11:44:57.295Z,99447.28
2022-12-23T11:47:24.028Z,99445.63
2022-12-23T11:49:59.457Z,99442.53
2022-12-23T11:52:29.057Z,99442.53
2022-12-23T11:55:05.055Z,99430.81
2022-12-23T11:57:49.038Z,99435.41
2022-12-23T12:00:19.111Z,99446.66
2022-12-23T12:02:49.183Z,99448.69
2022-12-23T12:05:20.131Z,99443.47
2022-12-23T12:07:48.286Z,99443.47
2022-12-23T12:10:39.300Z,99451.41
2022-12-23T12:13:19.424Z,99456.81
2022-12-23T12:15:55.143Z,99467.47
2022-12-23T12:18:22.901Z,99395.59
2022-12-23T12:20:53.860Z,99476.25
2022-12-23T12:23:43.154Z,99484.66
2022-12-23T12:26:31.747Z,99460.41
2022-12-23T12:29:15.560Z,99460.09
2022-12-23T12:32:06.783Z,99465.97
2022-12-23T12:34:49.838Z,99451.41
2022-12-23T12:37:40.925Z,99460.16
2022-12-23T12:40:26.593Z,99469.81
2022-12-23T12:43:23.072Z,99477.16
2022-12-23T12:46:10.861Z,99471.81
2022-12-23T12:48:59.852Z,99470.00
2022-12-23T12:51:33.957Z,99475.22
2022-12-23T12:54:12.782Z,99486.94
2022-12-23T12:56:54.068Z,99484.03
2022-12-23T12:59:25.767Z,99484.84
2022-12-23T13:02:27.744Z,99485.72
2022-12-23T13:05:21.920Z,99485.38
2022-12-23T13:07:54.449Z,99487.84
2022-12-23T13:10:33.516Z,99476.28
2022-12-23T13:13:22.317Z,99463.03
2022-12-23T13:16:13.897Z,99464.38
2022-12-23T13:18:52.459Z,99455.22
2022-12-23T13:21:36.546Z,99461.06
2022-12-23T13:24:14.021Z,99462.09
2022-12-23T13:27:40.747Z,99462.69
2022-12-23T13:30:51.096Z,99459.34
2022-12-23T13:37:41.064Z,99466.78
2022-12-23T13:40:28.308Z,99478.06
2022-12-23T13:43:54.888Z,99475.34
2022-12-23T13:51:08.591Z,99495.97
2022-12-23T13:53:58.048Z,99501.59
2022-12-23T13:57:01.346Z,99499.31
2022-12-23T13:59:40.417Z,99507.44
2022-12-23T14:02:36.572Z,99518.69
2022-12-23T14:05:09.298Z,99521.81
2022-12-23T14:07:38.578Z,99538.56
2022-12-23T14:10:19.486Z,99534.63
2022-12-23T14:12:47.604Z,99538.34
2022-12-23T14:15:48.189Z,99548.97
2022-12-23T14:18:40.586Z,99550.81
2022-12-23T14:21:36.223Z,99567.50
2022-12-23T14:24:18.914Z,99564.78
2022-12-23T14:27:16.765Z,99572.53
2022-12-23T14:29:52.868Z,99571.72
2022-12-23T14:32:28.116Z,99580.38
2022-12-23T14:35:06.325Z,99590.84
2022-12-23T14:37:34.763Z,99582.66
2022-12-23T14:40:39.504Z,99588.09
2022-12-23T14:43:27.623Z,99577.81
2022-12-23T14:45:55.337Z,99585.72
2022-12-23T14:48:34.569Z,99578.16
2022-12-23T14:51:10.386Z,99583.59
2022-12-23T14:53:59.483Z,99581.56
2022-12-23T14:56:26.313Z,99581.28
2022-12-23T14:59:11.624Z,99589.81
2022-12-23T15:02:03.721Z,99581.88
2022-12-23T15:04:40.576Z,99598.75
2022-12-23T15:07:33.560Z,99597.66
2022-12-23T15:10:02.851Z,99602.66
2022-12-23T15:12:40.098Z,99601.59
2022-12-23T15:15:17.642Z,99608.44
2022-12-23T15:17:44.965Z,99620.53
2022-12-23T15:20:22.161Z,99635.53
2022-12-23T15:22:49.625Z,99624.41
2022-12-23T15:25:31.732Z,99630.63
2022-12-23T15:28:02.364Z,99641.59
2022-12-23T15:30:46.075Z,99634.41
2022-12-23T15:34:00.192Z,99650.00
2022-12-23T15:36:07.381Z,99644.69
2022-12-23T15:38:37.645Z,99644.41
2022-12-23T15:41:13.573Z,99636.03
2022-12-23T15:43:44.574Z,99659.13
2022-12-23T15:46:16.502Z,99650.34
2022-12-23T15:48:43.816Z,99654.09
2022-12-23T15:52:06.362Z,99661.09
2022-12-23T15:54:44.143Z,99663.56
2022-12-23T15:57:19.446Z,99668.50
2022-12-23T15:59:46.430Z,99673.84
2022-12-23T16:03:00.354Z,99684.22
2022-12-23T16:05:38.260Z,99695.25
2022-12-23T16:08:09.820Z,99691.66
2022-12-23T16:10:36.998Z,99699.34
2022-12-23T16:13:03.739Z,99704.50
2022-12-23T16:15:33.635Z,99703.38
2022-12-23T16:18:23.084Z,99705.41
2022-12-23T16:21:00.632Z,99709.34
2022-12-23T16:23:33.079Z,99710.00
2022-12-23T16:26:02.582Z,99710.47
2022-12-23T16:28:41.310Z,99725.69
2022-12-23T16:31:10.771Z,99720.94
2022-12-23T16:33:48.023Z,99724.22
2022-12-23T16:36:27.009Z,99727.78
2022-12-23T16:38:56.292Z,99725.44
2022-12-23T16:41:23.520Z,99722.06
2022-12-23T16:43:52.657Z,99724.56
2022-12-23T16:46:22.715Z,99733.38
2022-12-23T16:48:55.503Z,99724.75
2022-12-23T16:51:22.709Z,99726.44
2022-12-23T16:53:51.028Z,99726.06
2022-12-23T16:56:19.833Z,99728.97
2022-12-23T16:58:46.788Z,99724.22
2022-12-23T17:01:18.049Z,99722.53
2022-12-23T17:03:44.934Z,99726.44
2022-12-23T17:06:15.928Z,99719.34
2022-12-23T17:08:43.353Z,99723.94
2022-12-23T17:11:18.931Z,99724.13
2022-12-23T17:13:45.543Z,99723.63
2022-12-23T17:16:20.090Z,99718.22
2022-12-23T17:18:51.609Z,99718.78
2022-12-23T17:21:33.882Z,99724.56
2022-12-23T17:24:22.088Z,99727.09
2022-12-23T17:26:49.604Z,99726.63
2022-12-23T17:29:16.233Z,99735.31
2022-12-23T17:31:43.829Z,99734.63
2022-12-23T17:34:20.444Z,99735.00
2022-12-23T17:36:50.364Z,99753.34
2022-12-23T17:39:18.179Z,99754.34
2022-12-23T17:41:45.135Z,99762.00
2022-12-23T17:44:15.112Z,99778.25
2022-12-23T17:46:42.384Z,99780.44
2022-12-23T17:49:09.450Z,99781.63
2022-12-23T17:51:36.155Z,99792.16
2022-12-23T17:54:05.777Z,99802.03
2022-12-23T17:56:32.884Z,99802.59
2022-12-23T17:58:59.545Z,99805.81
2022-12-23T18:01:31.358Z,99814.81
2022-12-23T18:03:59.723Z,99818.91
2022-12-23T18:06:28.642Z,99821.13
2022-12-23T18:08:57.438Z,99822.50
2022-12-23T18:11:30.749Z,99822.22
2022-12-23T18:13:57.434Z,99818.31
2022-12-23T18:16:24.201Z,99818.03
2022-12-23T18:18:52.053Z,99818.41
2022-12-23T18:21:25.052Z,99816.19
2022-12-23T18:23:53.791Z,99820.97
2022-12-23T18:26:21.006Z,99825.03
2022-12-23T18:28:47.657Z,99825.03
2022-12-23T18:33:45.371Z,99828.41
2022-12-23T18:36:20.813Z,99834.50
2022-12-23T18:38:47.510Z,99838.91
2022-12-23T18:41:14.163Z,99839.75
2022-12-23T18:43:41.087Z,99845.97
2022-12-23T18:46:08.010Z,99845.16
2022-12-23T18:48:34.749Z,99858.16
2022-12-23T18:51:01.567Z,99857.13
2022-12-23T18:53:28.211Z,99848.84
2022-12-23T18:55:55.488Z,99845.75
2022-12-23T18:58:22.907Z,99853.38
2022-12-23T19:00:52.723Z,99854.84
2022-12-23T19:03:25.791Z,99856.38
2022-12-23T19:05:54.003Z,99861.78
2022-12-23T19:08:27.181Z,99864.50
2022-12-23T19:10:55.968Z,99874.31
2022-12-23T19:13:23.489Z,99876.84
2022-12-23T19:15:50.622Z,99875.28
2022-12-23T19:18:19.732Z,99891.16
2022-12-23T19:20:47.972Z,99883.72
2022-12-23T19:23:15.105Z,99878.13
2022-12-23T19:25:45.179Z,99885.72
2022-12-23T19:28:19.017Z,99881.94
2022-12-23T19:30:45.817Z,99885.63
2022-12-23T19:33:13.366Z,99880.31
2022-12-23T19:35:44.350Z,99887.06
2022-12-23T19:38:11.245Z,99882.03
2022-12-23T19:40:39.087Z,99876.78
2022-12-23T19:43:05.706Z,99887.63
2022-12-23T19:45:32.555Z,99879.50
2022-12-23T19:47:59.214Z,99892.00
2022-12-23T19:50:27.295Z,99886.88
2022-12-23T19:52:56.462Z,99890.09
2022-12-23T19:55:23.599Z,99895.91
2022-12-23T19:57:50.315Z,99895.84
2022-12-23T20:00:17.370Z,99899.53
2022-12-23T20:02:44.229Z,99910.69
2022-12-23T20:05:10.930Z,99913.69
2022-12-23T20:07:37.717Z,99921.13
2022-12-23T20:10:05.984Z,99927.88
2022-12-23T20:12:32.793Z,99930.88
2022-12-23T20:14:59.790Z,99916.28
2022-12-23T20:17:26.494Z,99930.50
2022-12-23T20:19:53.219Z,99926.59
2022-12-23T20:22:20.340Z,99921.16
2022-12-23T20:24:47.034Z,99924.72
2022-12-23T20:27:15.963Z,99918.66
2022-12-23T20:29:43.193Z,99925.28
2022-12-23T20:32:10.411Z,99925.81
2022-12-23T20:34:39.944Z,99927.03
2022-12-23T20:37:07.512Z,99937.41
2022-12-23T20:39:34.681Z,99941.13
2022-12-23T20:42:01.355Z,99935.50
2022-12-23T20:44:36.829Z,99946.19
2022-12-23T20:47:06.136Z,99939.72
2022-12-23T20:49:33.299Z,99950.41
2022-12-23T20:52:00.054Z,99943.47
2022-12-23T20:54:32.791Z,99943.84
2022-12-23T20:57:03.207Z,99940.66
2022-12-23T20:59:29.860Z,99949.09
2022-12-23T21:01:59.121Z,99951.72
2022-12-23T21:04:26.373Z,99962.25
2022-12-23T21:06:53.043Z,99963.63
2022-12-23T21:09:19.728Z,99964.00
2022-12-23T21:11:47.827Z,99971.09
2022-12-23T21:14:15.501Z,99977.00
2022-12-23T21:16:42.594Z,99971.22
2022-12-23T21:19:15.769Z,99978.34
2022-12-23T21:21:42.502Z,99987.16
2022-12-23T21:24:10.063Z,99983.22
2022-12-23T21:26:37.184Z,99987.44
2022-12-23T21:29:06.361Z,99988.31
2022-12-23T21:31:35.317Z,99985.59
2022-12-23T21:34:03.217Z,99977.28
2022-12-23T21:36:33.019Z,99981.00
2022-12-23T21:39:00.305Z,99985.59
2022-12-23T21:41:29.546Z,99989.50
2022-12-23T21:43:57.556Z,99998.84
2022-12-23T21:46:24.950Z,100000.22
2022-12-23T21:48:52.506Z,100001.59
2022-12-23T21:51:23.725Z,100005.50
2022-12-23T21:53:52.516Z,100007.75
2022-12-23T21:56:27.801Z,100010.47
2022-12-23T21:59:14.101Z,100015.69
2022-12-23T22:01:42.423Z,100021.97
2022-12-23T22:04:09.165Z,100019.41
2022-12-23T22:06:43.758Z,100028.38
2022-12-23T22:09:19.137Z,100037.38
2022-12-23T22:11:47.140Z,100044.28
2022-12-23T22:14:17.418Z,100043.28
2022-12-23T22:16:44.184Z,100042.91
2022-12-23T22:19:12.211Z,100036.47
2022-12-23T22:21:39.838Z,100040.88
2022-12-23T22:24:07.147Z,100065.28
2022-12-23T22:26:34.635Z,100067.31
2022-12-23T22:29:04.376Z,100075.44
2022-12-23T22:31:48.625Z,100081.06
2022-12-23T22:34:18.677Z,100082.09
2022-12-23T22:36:45.738Z,100085.13
2022-12-23T22:39:20.914Z,100083.66
2022-12-23T22:41:49.102Z,100095.50
2022-12-23T22:44:16.404Z,100099.06
2022-12-23T22:46:43.701Z,100097.22
2022-12-23T22:49:14.516Z,100095.34
2022-12-23T22:51:42.258Z,100109.72
2022-12-23T22:54:09.307Z,100099.75
2022-12-23T22:56:36.256Z,100110.75
2022-12-23T22:59:03.022Z,100119.03
2022-12-23T23:01:32.927Z,100109.44
2022-12-23T23:04:01.400Z,100113.69
2022-12-23T23:06:30.513Z,100111.31
2022-12-23T23:08:58.329Z,100109.19
2022-12-23T23:11:27.354Z,100115.97
2022-12-23T23:13:54.342Z,100123.47
2022-12-23T23:16:23.119Z,100117.22
2022-12-23T23:18:51.065Z,100115.16
2022-12-23T23:21:17.834Z,100118.56
2022-12-23T23:23:44.628Z,100127.53
2022-12-23T23:26:11.901Z,100133.13
2022-12-23T23:28:39.594Z,100148.72
2022-12-23T23:31:40.507Z,100147.53
2022-12-23T23:33:54.174Z,100158.00
2022-12-23T23:36:21.312Z,100156.66
2022-12-23T23:38:47.996Z,100164.25
2022-12-23T23:41:18.859Z,100167.13
2022-12-23T23:43:49.674Z,100163.91
2022-12-23T23:46:16.463Z,100165.94
2022-12-23T23:48:43.140Z,100159.16
2022-12-23T23:51:10.069Z,100159.31
2022-12-23T23:53:36.711Z,100161.03
2022-12-23T23:56:07.561Z,100164.06
2022-12-23T23:58:36.041Z,100166.94
